Time;durP1;ratioP1;P1;durP2;ratioP2;P2;SDS_P1;SDS_P2;PMS_P1;PMS_P2;Temp;Humidity;BMP_temperature;BMP_pressure;BME280_temperature;BME280_humidity;BME280_pressure;Samples;Min_cycle;Max_cycle;Signal;HPM_P1;HPM_P2
2023/05/06 00:01:14;;;;;;;15.40;13.90;;;;;;;-145.94;69.54;77255.09;5115472;28;20189;-71
2023/05/06 00:03:40;;;;;;;15.83;14.07;;;;;;;-145.94;69.50;77259.19;5115590;28;20272;-71
2023/05/06 00:06:07;;;;;;;14.53;13.30;;;;;;;-145.94;69.27;77255.09;5115560;28;20209;-71
2023/05/06 00:08:34;;;;;;;15.17;13.67;;;;;;;-145.94;69.36;77248.97;5115348;28;20271;-71
2023/05/06 00:11:01;;;;;;;15.47;14.07;;;;;;;-145.94;69.37;77242.88;5115264;28;20189;-71
2023/05/06 00:13:27;;;;;;;15.23;13.80;;;;;;;-145.94;69.51;77251.03;5115232;28;20279;-71
2023/05/06 00:15:53;;;;;;;14.03;12.93;;;;;;;-145.94;69.53;77246.94;5115330;28;20213;-71
2023/05/06 00:18:21;;;;;;;15.33;13.93;;;;;;;-145.94;69.55;77246.94;5115701;28;20193;-71
2023/05/06 00:20:48;;;;;;;10.90;10.27;;;;;;;-145.94;69.80;77259.19;5115066;28;20196;-71
2023/05/06 00:23:15;;;;;;;11.80;11.10;;;;;;;-145.94;69.57;77251.03;5115022;28;20181;-71
2023/05/06 00:25:41;;;;;;;13.63;12.30;;;;;;;-145.94;69.70;77253.06;5115321;28;20215;-71
2023/05/06 00:28:07;;;;;;;11.47;10.77;;;;;;;-145.94;69.64;77257.13;5114814;28;20193;-71
2023/05/06 00:30:34;;;;;;;11.50;10.83;;;;;;;-145.94;69.30;77257.13;5114869;28;20189;-71
2023/05/06 00:33:00;;;;;;;11.17;10.50;;;;;;;-145.94;69.13;77263.25;5114831;28;20192;-71
2023/05/06 00:35:27;;;;;;;16.60;10.60;;;;;;;-145.94;69.45;77261.22;5114738;28;20185;-70
2023/05/06 00:37:57;;;;;;;11.73;11.13;;;;;;;-145.94;69.54;77263.25;5114985;28;20242;-70
2023/05/06 00:40:23;;;;;;;11.70;11.00;;;;;;;-145.94;69.59;77261.22;5115316;28;20186;-71
2023/05/06 00:42:50;;;;;;;11.17;10.50;;;;;;;-145.94;69.50;77261.22;5114904;28;20185;-71
2023/05/06 00:45:16;;;;;;;11.93;11.13;;;;;;;-145.94;69.74;77261.22;5114567;28;20205;-72
2023/05/06 00:47:43;;;;;;;13.00;11.80;;;;;;;-145.94;69.70;77255.09;5114505;28;20276;-71
2023/05/06 00:50:10;;;;;;;11.10;10.50;;;;;;;-145.94;69.68;77259.19;5114531;28;20238;-71
2023/05/06 00:52:36;;;;;;;10.33;9.90;;;;;;;-145.94;69.40;77263.25;5114453;28;20185;-71
2023/05/06 00:55:03;;;;;;;10.57;10.07;;;;;;;-145.94;69.65;77273.44;5114423;28;20268;-71
2023/05/06 00:57:29;;;;;;;11.50;10.80;;;;;;;-145.94;69.71;77271.41;5096050;28;20715;-71
2023/05/06 00:59:56;;;;;;;13.37;12.33;;;;;;;-145.94;69.80;77267.34;5096103;28;20193;-71
2023/05/06 01:02:22;;;;;;;13.43;12.50;;;;;;;-145.94;69.70;77263.25;5114293;28;20213;-71
2023/05/06 01:05:02;;;;;;;13.40;12.30;;;;;;;-145.94;69.87;77263.25;5113498;28;20642;-71
2023/05/06 01:07:49;;;;;;;18.00;14.07;;;;;;;-145.94;69.81;77261.22;5114203;28;20613;-71
2023/05/06 01:10:37;;;;;;;17.97;13.43;;;;;;;-145.94;69.99;77261.22;5114470;28;20177;-71
2023/05/06 01:13:20;;;;;;;14.57;13.20;;;;;;;-145.94;69.98;77261.22;5114189;28;20174;-71
2023/05/06 01:15:53;;;;;;;13.30;12.37;;;;;;;-145.94;70.05;77271.41;5114298;28;20169;-71
2023/05/06 01:18:21;;;;;;;13.47;12.57;;;;;;;-145.94;69.91;77271.41;5114389;28;20174;-71
2023/05/06 01:20:51;;;;;;;13.67;12.60;;;;;;;-145.94;70.00;77269.38;5114023;28;20595;-71
2023/05/06 01:23:18;;;;;;;12.93;11.87;;;;;;;-145.94;70.19;77269.38;5114018;28;20274;-71
2023/05/06 01:25:45;;;;;;;14.53;13.00;;;;;;;-145.94;69.98;77269.38;5113790;28;20227;-71
2023/05/06 01:28:12;;;;;;;14.90;13.43;;;;;;;-145.94;70.20;77269.38;5113829;28;20203;-71
2023/05/06 01:31:03;;;;;;;16.37;14.77;;;;;;;-145.94;70.30;77267.34;5114456;28;20215;-71
2023/05/06 01:33:53;;;;;;;17.43;15.50;;;;;;;-145.94;70.16;77257.13;5114140;28;20557;-71
2023/05/06 01:36:30;;;;;;;16.03;14.17;;;;;;;-145.94;70.29;77261.22;5113974;28;20216;-71
2023/05/06 01:39:14;;;;;;;15.50;13.53;;;;;;;-145.94;70.29;77263.25;5114093;28;20631;-71
2023/05/06 01:41:42;;;;;;;15.83;14.00;;;;;;;-145.94;70.29;77255.09;5114109;28;20173;-72
2023/05/06 01:44:10;;;;;;;14.77;13.40;;;;;;;-145.94;70.27;77257.13;5095478;28;20235;-72
2023/05/06 01:46:36;;;;;;;15.07;13.50;;;;;;;-145.94;70.44;77259.19;5113939;28;20281;-71
2023/05/06 01:49:06;;;;;;;14.40;13.20;;;;;;;-145.94;70.26;77267.34;5095499;28;20555;-71
2023/05/06 01:51:33;;;;;;;15.03;13.27;;;;;;;-145.94;70.48;77277.53;5113936;28;20177;-71
2023/05/06 01:54:01;;;;;;;15.37;13.50;;;;;;;-145.94;70.39;77277.53;5114179;28;20217;-71
2023/05/06 01:56:29;;;;;;;13.33;12.33;;;;;;;-145.94;70.35;77277.53;5113574;28;20651;-71
2023/05/06 01:58:56;;;;;;;12.20;11.10;;;;;;;-145.94;70.38;77285.69;5095340;28;20193;-71
2023/05/06 02:01:25;;;;;;;17.80;15.40;;;;;;;-145.94;70.55;77277.53;5114086;28;20200;-71
2023/05/06 02:03:51;;;;;;;18.87;14.97;;;;;;;-145.94;70.41;77281.59;5113575;28;20242;-71
2023/05/06 02:06:18;;;;;;;14.90;13.40;;;;;;;-145.94;70.43;77281.59;5095147;28;20213;-70
2023/05/06 02:08:44;;;;;;;14.50;13.13;;;;;;;-145.94;70.40;77287.72;5113820;28;20181;-70
2023/05/06 02:11:16;;;;;;;15.37;13.77;;;;;;;-145.94;70.56;77289.78;5095870;28;20220;-70
2023/05/06 02:13:44;;;;;;;14.70;13.27;;;;;;;-145.94;70.39;77289.78;5095484;28;20193;-70
2023/05/06 02:16:11;;;;;;;16.30;14.63;;;;;;;-145.94;70.66;77287.72;5097524;28;20216;-70
2023/05/06 02:18:37;;;;;;;15.27;13.87;;;;;;;-145.94;70.63;77291.81;5099223;28;20196;-70
2023/05/06 02:21:04;;;;;;;16.93;13.67;;;;;;;-145.94;70.61;77295.88;5099172;28;20297;-71
2023/05/06 02:23:30;;;;;;;16.57;14.87;;;;;;;-145.94;70.67;77299.97;5117645;28;20274;-71
2023/05/06 02:25:57;;;;;;;16.17;14.70;;;;;;;-145.94;70.89;77293.84;5117226;28;20243;-71
2023/05/06 02:28:24;;;;;;;17.17;14.30;;;;;;;-145.94;70.60;77297.94;5098898;28;20193;-71
2023/05/06 02:30:57;;;;;;;14.93;13.53;;;;;;;-145.94;70.63;77295.88;5117266;28;20215;-71
2023/05/06 02:33:24;;;;;;;13.87;12.53;;;;;;;-145.94;70.83;77299.97;5098884;28;20193;-71
2023/05/06 02:35:50;;;;;;;14.20;12.97;;;;;;;-145.94;70.77;77304.03;5098869;28;20205;-71
2023/05/06 02:38:17;;;;;;;13.77;12.67;;;;;;;-145.94;70.57;77308.13;5117139;28;20264;-71
2023/05/06 02:40:44;;;;;;;22.73;15.57;;;;;;;-145.94;70.69;77310.16;5099914;28;20197;-71
2023/05/06 02:43:10;;;;;;;32.10;12.20;;;;;;;-145.94;70.60;77318.31;5116988;28;20193;-71
2023/05/06 02:45:36;;;;;;;13.47;12.30;;;;;;;-145.94;70.41;77320.34;5116860;28;20197;-71
2023/05/06 02:48:03;;;;;;;11.63;10.60;;;;;;;-145.94;70.48;77332.59;5098587;28;20246;-71
2023/05/06 02:50:30;;;;;;;11.63;11.00;;;;;;;-145.94;70.43;77334.63;5116829;28;20184;-71
2023/05/06 02:52:56;;;;;;;11.37;10.53;;;;;;;-145.94;70.51;77332.59;5098610;28;20276;-71
2023/05/06 02:55:22;;;;;;;12.53;11.63;;;;;;;-145.94;70.49;77330.56;5117131;28;20181;-71
2023/05/06 02:57:49;;;;;;;11.87;11.03;;;;;;;-145.94;70.56;77326.47;5098407;28;20240;-71
2023/05/06 03:00:16;;;;;;;11.90;11.07;;;;;;;-145.94;70.73;77328.50;5098446;28;20555;-71
2023/05/06 03:02:42;;;;;;;11.60;10.87;;;;;;;-145.94;70.55;77330.56;5098388;28;20280;-71
2023/05/06 03:05:09;;;;;;;10.20;9.70;;;;;;;-145.94;70.48;77332.59;5116510;28;20758;-71
2023/05/06 03:07:37;;;;;;;9.23;8.93;;;;;;;-145.94;70.74;77336.69;5098266;28;20205;-71
2023/05/06 03:10:04;;;;;;;8.70;8.40;;;;;;;-145.94;70.61;77344.84;5098221;28;20242;-71
2023/05/06 03:12:33;;;;;;;11.07;10.13;;;;;;;-145.94;70.61;77342.78;5116708;28;20217;-71
2023/05/06 03:14:59;;;;;;;9.97;9.47;;;;;;;-145.94;70.54;77353.00;5098954;28;20193;-71
2023/05/06 03:17:26;;;;;;;9.63;9.07;;;;;;;-145.94;70.39;77355.03;5098219;28;20213;-71
2023/05/06 03:19:53;;;;;;;9.17;8.77;;;;;;;-145.94;70.48;77363.19;5098070;28;20220;-71
2023/05/06 03:22:20;;;;;;;9.17;8.80;;;;;;;-145.94;70.20;77365.22;5098023;28;20189;-71
2023/05/06 03:24:48;;;;;;;9.73;9.23;;;;;;;-145.94;70.29;77365.22;5098260;28;20299;-72
2023/05/06 03:27:15;;;;;;;9.60;9.13;;;;;;;-145.94;70.61;77363.19;5097194;28;20259;-71
2023/05/06 03:29:44;;;;;;;10.90;10.23;;;;;;;-145.94;70.30;77363.19;5097854;28;20189;-71
2023/05/06 03:32:12;;;;;;;11.23;10.43;;;;;;;-145.94;70.27;77363.19;5098095;28;20746;-71
2023/05/06 03:34:41;;;;;;;11.53;10.83;;;;;;;-145.94;70.16;77363.19;5116301;28;20269;-71
2023/05/06 03:37:11;;;;;;;11.83;10.80;;;;;;;-145.94;70.09;77365.22;5097688;28;20221;-70
2023/05/06 03:39:43;;;;;;;11.27;10.37;;;;;;;-145.94;70.04;77367.25;5098520;28;20277;-71
2023/05/06 03:42:10;;;;;;;11.27;10.43;;;;;;;-145.94;70.11;77379.50;5098200;28;20197;-71
2023/05/06 03:44:36;;;;;;;12.97;11.80;;;;;;;-145.94;70.26;77381.53;5115773;28;20182;-71
2023/05/06 03:47:03;;;;;;;18.70;14.23;;;;;;;-145.94;70.14;77395.81;5097482;28;20355;-70
2023/05/06 03:49:31;;;;;;;15.13;12.40;;;;;;;-145.94;69.90;77410.09;5097717;28;20189;-70
2023/05/06 03:51:58;;;;;;;16.87;14.20;;;;;;;-145.94;70.18;77416.22;5115992;28;20516;-70
2023/05/06 03:54:24;;;;;;;17.33;15.37;;;;;;;-145.94;70.28;77414.16;5097600;28;20185;-70
2023/05/06 03:56:51;;;;;;;20.37;15.77;;;;;;;-145.94;70.28;77401.94;5097345;28;20241;-70
2023/05/06 03:59:19;;;;;;;19.03;15.80;;;;;;;-145.94;70.44;77403.97;5097190;28;20203;-70
2023/05/06 04:01:46;;;;;;;18.30;14.87;;;;;;;-145.94;70.30;77412.13;5097240;28;20245;-70
2023/05/06 04:04:13;;;;;;;13.73;12.43;;;;;;;-145.94;70.19;77414.16;5097250;28;20205;-70
2023/05/06 04:06:40;;;;;;;13.67;12.53;;;;;;;-145.94;70.42;77424.38;5115254;28;20220;-70
2023/05/06 04:09:06;;;;;;;24.43;16.93;;;;;;;-145.94;70.56;77432.53;5097086;28;20246;-70
2023/05/06 04:11:37;;;;;;;30.40;20.53;;;;;;;-145.94;70.68;77430.50;5097092;28;20267;-70
2023/05/06 04:14:05;;;;;;;26.93;19.10;;;;;;;-145.94;71.35;77432.53;5096993;28;20542;-70
2023/05/06 04:16:33;;;;;;;29.57;18.63;;;;;;;-145.94;71.40;77416.22;5096869;28;20244;-70
2023/05/06 04:19:00;;;;;;;29.73;19.03;;;;;;;-145.94;71.40;77414.16;5096822;28;20304;-70
2023/05/06 04:21:26;;;;;;;27.17;18.60;;;;;;;-145.94;71.95;77422.34;5096838;28;20238;-72
2023/05/06 04:23:59;;;;;;;32.73;18.67;;;;;;;-145.94;71.77;77414.16;5097388;28;20550;-71
2023/05/06 04:26:32;;;;;;;29.63;19.07;;;;;;;-145.94;71.98;77412.13;5096520;28;20710;-70
2023/05/06 04:28:58;;;;;;;31.67;18.97;;;;;;;-145.94;71.88;77397.84;5097606;28;20230;-71
2023/05/06 04:31:27;;;;;;;42.10;18.67;;;;;;;-145.94;72.01;77401.94;5096984;28;20189;-71
2023/05/06 04:33:57;;;;;;;28.57;18.57;;;;;;;-145.94;72.09;77399.91;5096950;28;20203;-72
2023/05/06 04:36:24;;;;;;;31.13;19.60;;;;;;;-145.94;71.90;77389.69;5096970;28;20212;-71
2023/05/06 04:39:13;;;;;;;27.53;16.37;;;;;;;-145.94;71.56;77393.78;5097046;28;20189;-71
2023/05/06 04:41:40;;;;;;;19.40;15.63;;;;;;;-145.94;71.51;77393.78;5096723;28;20193;-71
2023/05/06 04:44:08;;;;;;;15.93;14.07;;;;;;;-145.94;71.71;77389.69;5096467;28;20288;-71
2023/05/06 04:46:35;;;;;;;22.63;14.77;;;;;;;-145.94;71.42;77393.78;5096260;28;20221;-70
2023/05/06 04:49:02;;;;;;;23.67;16.97;;;;;;;-145.94;71.72;77399.91;5096401;28;20217;-70
2023/05/06 04:51:29;;;;;;;24.00;17.80;;;;;;;-145.94;71.92;77391.75;5096316;28;20223;-70
2023/05/06 04:53:55;;;;;;;23.50;16.23;;;;;;;-145.94;71.75;77379.50;5114542;28;20177;-70
2023/05/06 04:56:21;;;;;;;31.13;19.27;;;;;;;-145.94;71.65;77369.31;5096163;28;20201;-70
2023/05/06 04:58:48;;;;;;;27.90;18.17;;;;;;;-145.94;71.85;77363.19;5096211;28;20216;-70
2023/05/06 05:01:15;;;;;;;38.17;19.23;;;;;;;-145.94;71.81;77359.09;5096152;28;20259;-70
2023/05/06 05:03:42;;;;;;;36.97;19.57;;;;;;;-145.94;72.15;77361.16;5114908;28;20242;-70
2023/05/06 05:06:08;;;;;;;33.90;19.83;;;;;;;-145.94;72.72;77359.09;5114101;28;20204;-70
2023/05/06 05:08:35;;;;;;;34.77;20.90;;;;;;;-145.94;72.62;77348.91;5114786;28;20185;-70
2023/05/06 05:11:01;;;;;;;39.67;20.43;;;;;;;-145.94;72.72;77344.84;5095915;28;20197;-70
2023/05/06 05:13:29;;;;;;;31.17;19.60;;;;;;;-145.94;72.90;77330.56;5095899;28;20280;-70
2023/05/06 05:15:56;;;;;;;46.17;23.53;;;;;;;-145.94;73.12;77322.41;5096296;28;20209;-70
2023/05/06 05:18:27;;;;;;;37.80;20.13;;;;;;;-145.94;73.28;77312.19;5095777;28;20188;-70
2023/05/06 05:20:58;;;;;;;37.10;20.33;;;;;;;-145.94;73.17;77299.97;5095812;28;20186;-70
2023/05/06 05:23:25;;;;;;;43.70;22.27;;;;;;;-145.94;73.18;77287.72;5095712;28;20278;-70
2023/05/06 05:25:51;;;;;;;37.37;21.57;;;;;;;-145.94;73.01;77281.59;5114065;28;20213;-70
2023/05/06 05:28:18;;;;;;;33.33;20.57;;;;;;;-145.94;72.99;77275.50;5095605;28;20295;-70
2023/05/06 05:30:45;;;;;;;33.30;20.37;;;;;;;-145.94;73.20;77265.28;5096232;28;20216;-70
2023/05/06 05:33:12;;;;;;;32.30;20.07;;;;;;;-145.94;72.89;77261.22;5096251;28;20280;-70
2023/05/06 05:35:39;;;;;;;38.97;22.00;;;;;;;-145.94;73.04;77255.09;5096126;28;20189;-70
2023/05/06 05:38:06;;;;;;;37.93;22.30;;;;;;;-145.94;73.15;77251.03;5113768;28;20527;-70
2023/05/06 05:40:35;;;;;;;41.87;22.37;;;;;;;-145.94;73.22;77244.91;5096138;28;20682;-70
2023/05/06 05:43:01;;;;;;;38.13;21.67;;;;;;;-145.94;73.41;77248.97;5095405;28;20224;-70
2023/05/06 05:45:33;;;;;;;41.73;23.13;;;;;;;-145.94;73.48;77234.69;5095434;28;20236;-70
2023/05/06 05:48:00;;;;;;;42.10;23.10;;;;;;;-145.94;73.14;77232.66;5095923;28;20277;-70
2023/05/06 05:50:26;;;;;;;44.93;23.37;;;;;;;-145.94;73.06;77228.59;5115688;28;20185;-70
2023/05/06 05:52:55;;;;;;;38.23;22.23;;;;;;;-145.94;73.16;77226.53;5102248;28;20280;-70
2023/05/06 05:55:21;;;;;;;36.53;21.10;;;;;;;-145.94;73.32;77214.31;5102175;28;20281;-71
2023/05/06 05:57:49;;;;;;;40.93;21.57;;;;;;;-145.94;73.44;77191.88;5102107;28;20212;-72
2023/05/06 06:00:17;;;;;;;40.87;22.57;;;;;;;-145.94;73.47;77187.78;5102129;28;20188;-72
2023/05/06 06:02:43;;;;;;;45.37;24.57;;;;;;;-145.94;73.46;77187.78;5120682;28;20676;-71
2023/05/06 06:05:13;;;;;;;43.27;23.93;;;;;;;-145.94;73.76;77175.56;5102056;28;20234;-71
2023/05/06 06:07:39;;;;;;;48.60;24.40;;;;;;;-145.94;73.62;77165.38;5120285;28;20295;-70
2023/05/06 06:10:07;;;;;;;38.33;21.57;;;;;;;-145.94;73.22;77159.25;5103129;28;20193;-70
2023/05/06 06:12:33;;;;;;;47.43;23.83;;;;;;;-145.94;72.90;77153.13;5101941;28;20199;-70
2023/05/06 06:15:01;;;;;;;41.53;23.50;;;;;;;-145.94;72.46;77149.06;5102001;28;20215;-70
2023/05/06 06:17:28;;;;;;;48.77;24.13;;;;;;;-145.94;72.75;77138.84;5101860;28;20251;-70
2023/05/06 06:19:57;;;;;;;43.43;24.47;;;;;;;-145.94;72.58;77124.56;5101973;28;20199;-70
2023/05/06 06:22:25;;;;;;;41.63;23.17;;;;;;;-145.94;72.65;77110.31;5101910;28;20242;-70
2023/05/06 06:24:52;;;;;;;40.73;23.17;;;;;;;-145.94;72.88;77091.94;5101873;28;20189;-70
2023/05/06 06:27:19;;;;;;;39.90;23.27;;;;;;;-145.94;72.37;77087.88;5120074;28;20292;-70
2023/05/06 06:29:49;;;;;;;40.33;24.60;;;;;;;-145.94;72.42;77081.75;5102653;28;20200;-71
2023/05/06 06:32:16;;;;;;;48.80;24.83;;;;;;;-145.94;72.55;77071.56;5101881;28;20228;-70
2023/05/06 06:34:42;;;;;;;43.60;24.47;;;;;;;-145.94;72.40;77067.47;5120259;28;20224;-70
2023/05/06 06:37:10;;;;;;;44.03;25.57;;;;;;;-145.94;72.05;77059.31;5119990;28;20295;-69
2023/05/06 06:39:36;;;;;;;38.80;22.63;;;;;;;-145.94;71.72;77032.81;5120345;28;20216;-69
2023/05/06 06:42:03;;;;;;;44.57;24.47;;;;;;;-145.94;71.56;77008.34;5120028;28;20272;-70
2023/05/06 06:44:36;;;;;;;42.43;23.80;;;;;;;-145.94;71.22;77012.41;5101784;28;20227;-70
2023/05/06 06:47:02;;;;;;;38.90;24.13;;;;;;;-145.94;71.27;77004.25;5119950;28;20577;-70
2023/05/06 06:49:30;;;;;;;41.97;23.73;;;;;;;-145.94;71.63;76987.94;5119951;28;20556;-70
2023/05/06 06:51:56;;;;;;;45.03;25.43;;;;;;;-145.94;71.31;76969.59;5119932;28;20189;-70
2023/05/06 06:54:23;;;;;;;49.80;24.93;;;;;;;-145.94;71.38;76955.31;5120171;28;20217;-70
2023/05/06 06:56:53;;;;;;;38.93;22.83;;;;;;;-145.94;70.83;76934.94;5084852;28;20307;-70
2023/05/06 06:59:19;;;;;;;42.83;22.13;;;;;;;-145.94;71.19;76914.53;5120463;28;20181;-70
2023/05/06 07:01:46;;;;;;;37.50;21.87;;;;;;;-145.94;71.00;76904.34;5118882;28;20185;-70
2023/05/06 07:04:12;;;;;;;37.33;24.27;;;;;;;-145.94;70.84;76883.94;5116422;28;20189;-70
2023/05/06 07:06:39;;;;;;;39.93;24.07;;;;;;;-145.94;70.24;76871.72;5116463;28;20219;-69
2023/05/06 07:09:05;;;;;;;41.60;24.33;;;;;;;-145.94;70.29;76855.41;5116849;28;20228;-69
2023/05/06 07:11:31;;;;;;;32.57;21.07;;;;;;;-145.94;70.12;76835.00;5116678;28;20191;-69
2023/05/06 07:13:58;;;;;;;44.07;23.43;;;;;;;-145.94;69.69;76832.97;5116456;28;20670;-70
2023/05/06 07:16:24;;;;;;;37.67;22.17;;;;;;;-145.94;69.27;76814.63;5116336;28;20705;-70
2023/05/06 07:18:52;;;;;;;35.80;20.67;;;;;;;-145.94;68.84;76802.38;5116426;28;20213;-74
2023/05/06 07:21:19;;;;;;;35.30;23.57;;;;;;;-145.94;68.13;76800.34;5116263;28;20680;-71
2023/05/06 07:23:45;;;;;;;37.73;22.07;;;;;;;-145.94;67.68;76796.25;5116520;28;20189;-71
2023/05/06 07:26:11;;;;;;;36.97;20.80;;;;;;;-145.94;66.56;76806.47;5116228;28;20221;-70
2023/05/06 07:28:38;;;;;;;33.83;21.23;;;;;;;-145.94;66.82;76798.31;5116077;28;20678;-70
2023/05/06 07:31:04;;;;;;;30.57;21.87;;;;;;;-145.94;66.69;76779.94;5116142;28;20647;-70
2023/05/06 07:33:31;;;;;;;28.27;20.00;;;;;;;-145.94;66.53;76769.75;5116078;28;20220;-70
2023/05/06 07:35:57;;;;;;;32.30;19.00;;;;;;;-145.94;66.11;76759.56;5115966;28;20205;-70
2023/05/06 07:38:24;;;;;;;23.03;18.47;;;;;;;-145.94;66.18;76745.28;5116453;28;20194;-70
2023/05/06 07:40:50;;;;;;;26.50;20.23;;;;;;;-145.94;65.75;76733.03;5116259;28;20173;-70
2023/05/06 07:43:17;;;;;;;23.53;17.73;;;;;;;-145.94;65.02;76728.97;5116128;28;20201;-70
2023/05/06 07:45:43;;;;;;;22.27;17.40;;;;;;;-145.94;64.27;76720.81;5115950;28;20189;-70
2023/05/06 07:48:09;;;;;;;19.17;16.43;;;;;;;-145.94;63.71;76720.81;5116331;28;20222;-70
2023/05/06 07:50:36;;;;;;;27.87;17.77;;;;;;;-145.94;63.66;76718.78;5115748;28;20234;-70
2023/05/06 07:53:02;;;;;;;21.97;16.67;;;;;;;-145.94;63.21;76706.53;5116250;28;20215;-70
2023/05/06 07:55:29;;;;;;;19.90;17.60;;;;;;;-145.94;62.82;76704.50;5115827;28;20551;-69
2023/05/06 07:57:55;;;;;;;23.13;17.67;;;;;;;-145.94;61.84;76698.38;5115579;28;20195;-70
2023/05/06 08:00:22;;;;;;;18.50;16.57;;;;;;;-145.94;62.28;76680.03;5115517;28;20189;-70
2023/05/06 08:02:48;;;;;;;17.10;15.30;;;;;;;-145.94;62.30;76669.84;5115961;28;20185;-70
2023/05/06 08:05:16;;;;;;;21.90;14.63;;;;;;;-145.94;61.86;76661.69;5115527;28;20193;-70
2023/05/06 08:07:42;;;;;;;17.93;16.13;;;;;;;-145.94;61.56;76647.41;5115237;28;20205;-70
2023/05/06 08:10:09;;;;;;;21.13;16.27;;;;;;;-145.94;61.59;76653.53;5115357;28;20209;-70
2023/05/06 08:12:36;;;;;;;19.17;16.87;;;;;;;-145.94;61.46;76643.31;5115211;28;20186;-70
2023/05/06 08:15:02;;;;;;;22.27;18.70;;;;;;;-145.94;61.24;76641.28;5114844;28;20189;-70
2023/05/06 08:17:29;;;;;;;20.37;16.70;;;;;;;-145.94;60.45;76637.22;5115689;28;20272;-70
2023/05/06 08:19:55;;;;;;;15.50;14.00;;;;;;;-145.94;60.69;76635.16;5115183;28;20185;-70
2023/05/06 08:22:22;;;;;;;18.70;11.70;;;;;;;-145.94;58.38;76637.22;5115025;28;20185;-70
2023/05/06 08:24:48;;;;;;;13.37;12.37;;;;;;;-145.94;58.53;76631.09;5115888;28;20185;-71
2023/05/06 08:27:16;;;;;;;20.73;13.40;;;;;;;-145.94;59.54;76616.81;5098342;28;20278;-71
2023/05/06 08:29:43;;;;;;;19.70;9.50;;;;;;;-145.94;57.59;76610.69;5117166;28;20211;-71
2023/05/06 08:32:09;;;;;;;12.47;11.33;;;;;;;-145.94;58.66;76608.66;5115717;28;20169;-70
2023/05/06 08:34:36;;;;;;;13.40;12.00;;;;;;;-145.94;59.60;76600.50;5114946;28;20540;-70
2023/05/06 08:37:03;;;;;;;10.23;9.47;;;;;;;-145.94;59.97;76582.16;5115083;28;20205;-70
2023/05/06 08:39:30;;;;;;;13.40;12.30;;;;;;;-145.94;58.30;76565.84;5115191;28;20597;-70
2023/05/06 08:42:00;;;;;;;13.07;11.97;;;;;;;-145.94;58.56;76547.50;5116501;28;20179;-70
2023/05/06 08:44:28;;;;;;;13.77;12.63;;;;;;;-145.94;56.98;76537.28;5097006;28;20573;-71
2023/05/06 08:46:55;;;;;;;12.10;11.27;;;;;;;-145.94;57.61;76525.06;5114542;28;20619;-70
2023/05/06 08:49:21;;;;;;;11.60;10.80;;;;;;;-145.94;57.10;76514.88;5114368;28;20173;-71
2023/05/06 08:51:53;;;;;;;15.30;10.03;;;;;;;-145.94;58.21;76512.81;5116517;28;20193;-71
2023/05/06 08:54:24;;;;;;;11.07;10.30;;;;;;;-145.94;57.86;76500.59;5117002;28;20170;-70
2023/05/06 08:56:52;;;;;;;10.57;9.77;;;;;;;-145.94;56.99;76502.63;5114324;28;20193;-69
2023/05/06 08:59:24;;;;;;;11.07;10.17;;;;;;;-145.94;56.15;76504.66;5114668;28;20227;-70
2023/05/06 09:01:51;;;;;;;12.03;11.10;;;;;;;-145.94;55.14;76508.75;5114619;28;20175;-70
2023/05/06 09:04:18;;;;;;;11.80;10.93;;;;;;;-145.94;56.07;76529.13;5114543;28;20669;-70
2023/05/06 09:06:45;;;;;;;12.17;11.20;;;;;;;-145.94;56.42;76514.88;5114356;28;20704;-70
2023/05/06 09:09:13;;;;;;;11.77;9.63;;;;;;;-145.94;56.86;76492.44;5114777;28;20201;-70
2023/05/06 09:11:40;;;;;;;8.53;8.20;;;;;;;-145.94;56.97;76480.19;5114172;28;20185;-70
2023/05/06 09:14:11;;;;;;;7.77;7.40;;;;;;;-145.94;57.30;76465.94;5114113;28;20192;-70
2023/05/06 09:16:40;;;;;;;7.90;7.50;;;;;;;-145.94;57.27;76437.38;5113978;28;20700;-70
2023/05/06 09:19:07;;;;;;;7.63;7.23;;;;;;;-145.94;55.45;76427.19;5114371;28;20590;-70
2023/05/06 09:21:35;;;;;;;8.50;7.87;;;;;;;-145.94;55.23;76423.13;5114590;28;20272;-70
2023/05/06 09:24:03;;;;;;;8.77;8.20;;;;;;;-145.94;53.65;76423.13;5114183;28;20185;-70
2023/05/06 09:26:31;;;;;;;7.97;7.57;;;;;;;-145.94;54.84;76412.91;5113249;28;20566;-70
2023/05/06 09:28:58;;;;;;;7.47;7.13;;;;;;;-145.94;54.45;76414.94;5113986;28;20182;-70
2023/05/06 09:31:26;;;;;;;6.13;5.87;;;;;;;-145.94;54.75;76400.69;5113834;28;20192;-70
2023/05/06 09:33:55;;;;;;;7.83;7.50;;;;;;;-145.94;54.47;76386.41;5113846;28;20205;-70
2023/05/06 09:36:22;;;;;;;6.60;6.40;;;;;;;-145.94;53.88;76376.22;5113914;28;20193;-69
2023/05/06 09:38:49;;;;;;;6.13;5.93;;;;;;;-145.94;53.95;76363.97;5114026;28;20189;-70
2023/05/06 09:41:19;;;;;;;5.03;4.83;;;;;;;-145.94;52.75;76378.25;5114002;28;20225;-70
2023/05/06 09:43:48;;;;;;;5.10;5.00;;;;;;;-145.94;51.83;76384.38;5113751;28;20192;-70
2023/05/06 09:46:18;;;;;;;5.70;5.33;;;;;;;-145.94;51.24;76382.34;5113481;28;20634;-69
2023/05/06 09:48:45;;;;;;;4.50;4.40;;;;;;;-145.94;52.18;76368.06;5113700;28;20177;-69
2023/05/06 09:51:12;;;;;;;4.40;4.20;;;;;;;-145.94;52.06;76357.88;5114224;28;20199;-70
2023/05/06 09:53:38;;;;;;;3.87;3.77;;;;;;;-145.94;50.97;76341.56;5113674;28;20191;-70
2023/05/06 09:56:06;;;;;;;4.07;3.87;;;;;;;-145.94;50.03;76306.88;5113848;28;20554;-69
2023/05/06 09:58:33;;;;;;;3.63;3.23;;;;;;;-145.94;50.07;76288.53;5113592;28;20659;-70
2023/05/06 10:01:02;;;;;;;2.83;2.83;;;;;;;-145.94;49.25;76282.44;5113578;28;20185;-70
2023/05/06 10:03:30;;;;;;;3.37;3.27;;;;;;;-145.94;49.69;76264.06;5113574;28;20548;-69
2023/05/06 10:05:59;;;;;;;3.87;3.77;;;;;;;-145.94;48.42;76270.19;5113409;28;20686;-69
2023/05/06 10:08:26;;;;;;;2.70;2.63;;;;;;;-145.94;48.06;76260.00;5113700;28;20671;-69
2023/05/06 10:10:53;;;;;;;3.33;3.07;;;;;;;-145.94;48.23;76239.59;5114063;28;20676;-69
2023/05/06 10:13:20;;;;;;;2.97;2.87;;;;;;;-145.94;46.30;76249.81;5113968;28;20666;-70
2023/05/06 10:15:48;;;;;;;3.30;3.10;;;;;;;-145.94;47.17;76243.69;5113447;28;20180;-70
2023/05/06 10:18:16;;;;;;;7.50;3.10;;;;;;;-145.94;46.57;76237.56;5113418;28;20213;-70
2023/05/06 10:20:44;;;;;;;2.40;1.87;;;;;;;-145.94;46.89;76229.41;5113403;28;20205;-70
2023/05/06 10:23:36;;;;;;;2.73;2.73;;;;;;;-145.94;46.33;76215.13;5113414;28;20268;-70
2023/05/06 10:26:09;;;;;;;3.27;2.63;;;;;;;-145.94;46.81;76204.94;5113496;28;20213;-69
2023/05/06 10:28:42;;;;;;;2.60;2.60;;;;;;;-145.94;46.84;76184.56;5113252;28;20181;-69
2023/05/06 10:31:12;;;;;;;2.03;2.03;;;;;;;-145.94;47.70;76172.31;5113891;28;20543;-70
2023/05/06 10:33:46;;;;;;;2.10;2.10;;;;;;;-145.94;46.56;76176.41;5113279;28;20190;-70
2023/05/06 10:36:19;;;;;;;1.93;1.93;;;;;;;-145.94;46.35;76176.41;5113580;28;20596;-70
2023/05/06 10:38:53;;;;;;;1.63;1.63;;;;;;;-145.94;46.04;76186.59;5117435;28;20173;-70
2023/05/06 10:41:21;;;;;;;1.40;1.40;;;;;;;-145.94;45.00;76172.31;5117408;28;20624;-70
2023/05/06 10:43:55;;;;;;;2.63;2.10;;;;;;;-145.94;43.93;76166.22;5117071;28;20184;-70
2023/05/06 10:46:24;;;;;;;2.10;2.00;;;;;;;-145.94;42.71;76170.28;5117155;28;20224;-69
2023/05/06 10:49:15;;;;;;;2.77;1.60;;;;;;;-145.94;42.03;76194.75;5117550;28;20185;-70
2023/05/06 10:51:46;;;;;;;1.63;1.63;;;;;;;-145.94;42.68;76207.00;5098630;28;20565;-70
2023/05/06 10:54:19;;;;;;;1.30;1.30;;;;;;;-145.94;43.53;76221.25;5116868;28;20190;-70
2023/05/06 10:56:48;;;;;;;1.93;1.93;;;;;;;-145.94;43.52;76229.41;5117182;28;20625;-69
2023/05/06 10:59:22;;;;;;;3.13;1.50;;;;;;;-145.94;44.73;76215.13;5117175;28;20238;-70
2023/05/06 11:02:09;;;;;;;3.60;1.90;;;;;;;-145.94;44.79;76194.75;5117230;28;20181;-70
2023/05/06 11:04:36;;;;;;;1.40;1.40;;;;;;;-145.94;43.75;76196.78;5116461;28;20189;-70
2023/05/06 11:07:11;;;;;;;1.57;1.50;;;;;;;-145.94;44.69;76186.59;5116903;28;20216;-70
2023/05/06 11:09:55;;;;;;;3.23;2.10;;;;;;;-145.94;44.94;76166.22;5116770;28;20642;-69